Pagrindinis puslapis
METAR-TAF:

METAR-TAF

Oro uostai :

Joensū, Suomija

platuma: 62-40N, ilguma: 029-38E, Aukštis: 119 m

Dabartinis oras

Ataskaita buvo paskelbta 33 minutes, ne 03:20 UTC
Vėjas 9 kt iš Šiaurės/Šiaurės Vakarų
Temperatūra -7°C
Drėgmė 86%
Slėgis 978 hPa
Matomumas: 9000 m
Mažai debesys ne aukštis 1200 ft
Su prošvaistėmis ne aukštis 2900 ft
Apsiniaukę ne aukštis 4300 ft
sniegas

METAR: EFJO 010320Z 33009KT 9000 -SN FEW012 BKN029 OVC043 M07/M09 Q0978

Laikas: 05:53 (03:53 UTC)

Prognozė

Ataskaita buvo paskelbta 7 valandos ir 30 minutes, ne 20:23 UTC
Prognozė galioja nuo 30 metu 21 UTC su 30 metu 24 UTC
Vėjas 6 kt iš Šiaurės
Matomumas 10 km arba daugiau
Apsiniaukę ne aukštis 1200 ft
sniegas
Laikinai
nuo 30 metu 21 UTC su 30 metu 24 UTC
Matomumas: 4000 m
Apsiniaukę ne aukštis 2000 ft

TAF: EFJO 302023Z 3021/3024 35006KT 9999 -SN OVC012 TEMPO 3021/3024 4000 OVC020

Orai ataskaitas ir orų prognozės (METAR, TAF).

turimą stotys yra geltonos ir raudonos taškus žemėlapyje.

Perkelti pele per norėdami pamatyti stoties vardą.

Tada spustelėkite, norėdami matyti oro stebėjimo ir prognozės.

Norėdami pakeisti žemėlapį: spustelėkite ant žalios mygtukų su juodo kryžiaus žemyn,; žalią mygtuką su brūkšneliu, jei norite nutolinti; arba žalių rodyklių gretimoms žemėlapius.


METAR-TAF: